Huvudsida
METAR-TAF:

METAR-TAF

Flygplatser :

Amman Civil Airport

Amman, Jordanien

latitud: 31-59N, longitud: 035-59E, höjd: 767 m

Aktuellt väderrapport

Denna rapport gjordes för 33 minuter sedan, klockan 21:00 UTC
Stilla vind
Temperatur 8°C
Fuktighet 57%
Tryck 1018 hPa
Sikt: 5000 m
torrdis

METAR: OJAM 142100Z 00000KT 5000 HZ NSC 08/00 Q1018 NOSIG

Tid: 23:33 (21:33 UTC)

Väderprognos

Denna rapport gjordes för 4 timmar och 34 minuter sedan, klockan 16:59 UTC
Prognos gäller från 14 kl. 18 UTC till 15 kl. 24 UTC
Vind 4 kt från syd/sydväst
Sikt: 5000 m
torrdis
Sannolikhet 40%
från 15 kl. 02 UTC till 15 kl. 06 UTC
Sikt: 4000 m
fuktdis
Sannolikhet 30% :
Temporärt
från 15 kl. 12 UTC till 15 kl. 24 UTC
Vind 14 kt från ost/sydost
Sikt: 3000 m
Spridda moln på en höjd av 4000 ft
Brutna moln på en höjd av 8000 ft
lätt regn, utbrett stoft

TAF: OJAM 141659Z 1418/1524 20004KT 5000 HZ NSC PROB40 1502/1506 4000 BR PROB30 TEMPO 1512/1524 12014KT 3000 -RA DU SCT040 BKN080

Aktuella väderrapporter och prognoser från 4000 flygplatser (METAR- och TAF-rapporter).

De tillgängliga stationerna syns som gula och röda prickar på kartan.

För musen över prickarna för att se namnen på stationerna.

Klicka sedan för att få väderrapporter och prognoser.

För att ändra kartan: Klicka på de gröna knapparna med ett svart kors på för att zooma in; den gröna knappen med ett streck på för att zooma ut; eller på de gröna pilarna för angränsande kartor.


METAR-TAF: